Time;durP1;ratioP1;P1;durP2;ratioP2;P2;SDS_P1;SDS_P2;PMS_P1;PMS_P2;Temp;Humidity;BMP_temperature;BMP_pressure;BME280_temperature;BME280_humidity;BME280_pressure;Samples;Min_cycle;Max_cycle;Signal;HPM_P1;HPM_P2
2021/01/20 00:01:21;;;;;;;17.23;11.88;;;5.10;99.90;;;;;;5163121;27;20200;-78
2021/01/20 00:03:47;;;;;;;14.25;11.75;;;5.10;99.90;;;;;;5160541;27;20206;-78
2021/01/20 00:06:14;;;;;;;18.15;13.45;;;5.00;99.90;;;;;;5166517;27;20259;-79
2021/01/20 00:08:40;;;;;;;16.33;12.32;;;5.10;99.90;;;;;;5168720;27;20231;-78
2021/01/20 00:11:07;;;;;;;16.05;12.30;;;5.10;99.90;;;;;;5168116;27;20199;-76
2021/01/20 00:13:33;;;;;;;16.17;12.10;;;5.00;99.90;;;;;;5166864;27;20643;-78
2021/01/20 00:16:01;;;;;;;13.32;11.23;;;4.90;99.90;;;;;;5158571;27;20220;-78
2021/01/20 00:18:27;;;;;;;18.17;12.98;;;4.90;99.90;;;;;;5157603;27;20203;-77
2021/01/20 00:20:53;;;;;;;15.85;11.60;;;4.90;99.90;;;;;;5157762;27;20294;-80
2021/01/20 00:23:23;;;;;;;17.17;12.77;;;4.90;99.90;;;;;;5157836;27;20276;-80
2021/01/20 00:25:50;;;;;;;16.55;11.48;;;4.90;99.90;;;;;;5157573;27;20736;-80
2021/01/20 00:28:17;;;;;;;14.40;11.88;;;4.90;99.90;;;;;;5158190;27;20206;-80
2021/01/20 00:30:43;;;;;;;18.55;12.05;;;4.80;99.90;;;;;;5164949;27;20214;-78
2021/01/20 00:33:12;;;;;;;17.15;13.45;;;4.80;99.90;;;;;;5165256;27;20204;-78
2021/01/20 00:35:38;;;;;;;16.38;10.70;;;4.90;99.90;;;;;;5161730;27;20240;-78
2021/01/20 00:38:05;;;;;;;14.60;10.02;;;4.90;99.90;;;;;;5161282;27;20196;-78
2021/01/20 00:40:31;;;;;;;18.38;11.73;;;4.90;99.90;;;;;;5157518;27;20290;-81
2021/01/20 00:42:57;;;;;;;20.60;12.60;;;4.80;99.90;;;;;;5156947;27;20206;-80
2021/01/20 00:45:24;;;;;;;15.75;11.45;;;4.90;99.90;;;;;;5156660;27;20326;-79
2021/01/20 00:47:50;;;;;;;18.30;12.77;;;4.90;99.90;;;;;;5157420;27;20616;-79
2021/01/20 00:50:17;;;;;;;19.45;12.23;;;4.90;99.90;;;;;;5157074;27;20675;-80
2021/01/20 00:52:44;;;;;;;15.77;10.95;;;5.00;99.90;;;;;;5157083;27;20206;-79
2021/01/20 00:55:12;;;;;;;14.65;10.35;;;4.90;99.90;;;;;;5157396;27;20251;-79
2021/01/20 00:57:38;;;;;;;15.40;10.70;;;4.90;99.90;;;;;;5157490;27;20230;-80
2021/01/20 01:00:07;;;;;;;12.57;9.80;;;4.90;99.90;;;;;;5157817;27;20225;-80
2021/01/20 01:02:35;;;;;;;15.38;12.23;;;4.80;99.90;;;;;;5158170;27;20204;-81
2021/01/20 01:05:04;;;;;;;14.88;11.57;;;4.80;99.90;;;;;;5157634;27;20226;-81
2021/01/20 01:07:32;;;;;;;16.40;10.48;;;4.80;99.90;;;;;;5157885;27;20283;-80
2021/01/20 01:09:58;;;;;;;15.63;10.35;;;4.80;99.90;;;;;;5157466;27;20351;-81
2021/01/20 01:12:24;;;;;;;17.42;12.13;;;4.80;99.90;;;;;;5157327;27;20551;-79
2021/01/20 01:14:52;;;;;;;14.57;10.38;;;4.80;99.90;;;;;;5157844;27;20219;-82
2021/01/20 01:17:18;;;;;;;13.75;10.38;;;4.80;99.90;;;;;;5157695;27;20333;-81
2021/01/20 01:19:44;;;;;;;13.50;10.30;;;4.80;99.90;;;;;;5160940;27;20666;-81
2021/01/20 01:22:12;;;;;;;15.38;10.95;;;4.80;99.90;;;;;;5162124;27;20203;-81
2021/01/20 01:24:40;;;;;;;13.68;10.75;;;4.80;99.90;;;;;;5169209;27;20306;-82
2021/01/20 01:27:06;;;;;;;12.48;9.23;;;4.80;99.90;;;;;;5168190;27;20195;-82
2021/01/20 01:29:32;;;;;;;13.05;9.25;;;4.90;99.90;;;;;;5165846;27;20255;-81
2021/01/20 01:31:59;;;;;;;11.48;9.60;;;4.90;99.90;;;;;;5166778;27;20203;-82
2021/01/20 01:34:25;;;;;;;14.18;10.77;;;4.90;99.90;;;;;;5166617;27;20244;-81
2021/01/20 01:36:51;;;;;;;12.68;10.30;;;5.00;99.90;;;;;;5166226;27;20687;-81
2021/01/20 01:39:18;;;;;;;13.88;10.05;;;5.00;99.90;;;;;;5163287;27;20278;-81
2021/01/20 01:41:45;;;;;;;14.10;10.10;;;4.90;99.90;;;;;;5177386;22;20255;-81
2021/01/20 01:44:11;;;;;;;15.07;11.95;;;4.90;99.90;;;;;;5145879;27;20172;-81
2021/01/20 01:46:38;;;;;;;12.55;9.98;;;4.80;99.90;;;;;;5144712;27;20286;-80
2021/01/20 01:49:04;;;;;;;13.80;10.68;;;4.80;99.90;;;;;;5145525;27;20284;-81
2021/01/20 01:51:31;;;;;;;12.38;10.05;;;4.80;99.90;;;;;;5146224;27;20712;-80
2021/01/20 01:53:57;;;;;;;14.38;11.50;;;4.80;99.90;;;;;;5164778;27;20209;-80
2021/01/20 01:56:24;;;;;;;11.80;9.73;;;4.80;99.90;;;;;;5168655;27;20227;-82
2021/01/20 01:58:52;;;;;;;13.70;10.63;;;4.80;99.90;;;;;;5168906;27;20334;-81
2021/01/20 02:01:19;;;;;;;12.30;9.82;;;4.80;99.90;;;;;;5165699;27;20200;-80
2021/01/20 02:03:48;;;;;;;16.42;12.13;;;4.70;99.90;;;;;;5163190;27;20210;-79
2021/01/20 02:06:14;;;;;;;14.90;12.63;;;4.70;99.90;;;;;;5164468;27;20295;-82
2021/01/20 02:08:42;;;;;;;14.20;11.50;;;4.70;99.90;;;;;;5165050;27;20214;-81
2021/01/20 02:11:24;;;;;;;16.95;11.90;;;4.70;99.90;;;;;;5164365;27;20223;-80
2021/01/20 02:14:02;;;;;;;13.95;11.52;;;4.70;99.90;;;;;;5163498;27;20652;-81
2021/01/20 02:16:30;;;;;;;16.67;12.95;;;4.70;99.90;;;;;;5164211;27;20720;-81
2021/01/20 02:18:58;;;;;;;15.02;11.45;;;4.70;99.90;;;;;;5163659;27;20204;-80
2021/01/20 02:21:54;;;;;;;17.02;12.05;;;4.70;99.90;;;;;;5162734;27;20204;-81
2021/01/20 02:24:38;;;;;;;13.52;11.48;;;4.70;99.90;;;;;;5162808;27;20180;-81
2021/01/20 02:27:09;;;;;;;15.70;11.90;;;4.70;99.90;;;;;;5163022;27;20183;-81
2021/01/20 02:29:55;;;;;;;18.60;13.70;;;4.70;99.90;;;;;;5162272;27;20183;-80
2021/01/20 02:32:21;;;;;;;14.05;12.30;;;4.80;99.90;;;;;;5162987;27;20222;-81
2021/01/20 02:34:51;;;;;;;17.05;11.77;;;4.80;99.90;;;;;;5162816;27;20290;-81
2021/01/20 02:37:18;;;;;;;15.05;12.82;;;4.80;99.90;;;;;;5163531;27;20243;-80
2021/01/20 02:39:45;;;;;;;14.65;12.55;;;4.80;99.90;;;;;;5163339;27;20207;-81
2021/01/20 02:42:11;;;;;;;14.73;12.68;;;4.70;99.90;;;;;;5162904;27;20676;-80
2021/01/20 02:44:38;;;;;;;16.52;12.68;;;4.70;99.90;;;;;;5163875;27;20283;-80
2021/01/20 02:47:07;;;;;;;14.60;12.25;;;4.80;99.90;;;;;;5163330;27;20191;-82
2021/01/20 02:49:34;;;;;;;16.77;12.93;;;4.70;99.90;;;;;;5163154;27;20559;-81
2021/01/20 02:52:07;;;;;;;16.15;12.65;;;4.80;99.90;;;;;;5163586;27;20239;-80
2021/01/20 02:54:36;;;;;;;16.33;14.27;;;4.70;99.90;;;;;;5162389;27;20636;-81
2021/01/20 02:57:04;;;;;;;19.40;13.77;;;4.70;99.90;;;;;;5161923;27;20226;-80
2021/01/20 02:59:32;;;;;;;16.58;13.13;;;4.80;99.90;;;;;;5162854;27;20634;-80
2021/01/20 03:02:05;;;;;;;17.35;13.30;;;4.90;99.90;;;;;;5163091;27;20232;-81
2021/01/20 03:04:34;;;;;;;23.33;13.77;;;4.80;99.90;;;;;;5162991;27;20188;-81
2021/01/20 03:07:03;;;;;;;18.15;14.13;;;4.80;99.90;;;;;;5169289;27;20248;-80
2021/01/20 03:09:29;;;;;;;13.23;11.82;;;4.70;99.90;;;;;;5173421;27;20739;-81
2021/01/20 03:11:55;;;;;;;15.45;12.38;;;4.80;99.90;;;;;;5163641;27;20224;-80
2021/01/20 03:14:25;;;;;;;19.25;13.55;;;4.70;99.90;;;;;;5162490;27;20207;-81
2021/01/20 03:16:52;;;;;;;16.85;12.55;;;4.80;99.90;;;;;;5161929;27;20222;-81
2021/01/20 03:19:18;;;;;;;17.38;13.63;;;4.80;99.90;;;;;;5162251;27;20578;-82
2021/01/20 03:21:46;;;;;;;14.00;12.60;;;4.90;99.90;;;;;;5162343;27;20315;-81
2021/01/20 03:24:12;;;;;;;15.45;12.35;;;4.80;99.90;;;;;;5162147;27;20203;-81
2021/01/20 03:26:38;;;;;;;13.80;11.75;;;4.80;99.90;;;;;;5162283;27;20566;-81
2021/01/20 03:29:05;;;;;;;15.93;11.90;;;4.80;99.90;;;;;;5162093;27;20284;-82
2021/01/20 03:31:31;;;;;;;13.43;11.38;;;4.80;99.90;;;;;;5162079;27;20635;-81
2021/01/20 03:33:58;;;;;;;13.55;11.77;;;4.70;99.90;;;;;;5162402;27;20635;-82
2021/01/20 03:36:25;;;;;;;14.13;11.73;;;4.60;99.90;;;;;;5161612;27;20223;-80
2021/01/20 03:38:52;;;;;;;13.32;10.98;;;4.70;99.90;;;;;;5161866;27;20209;-81
2021/01/20 03:41:19;;;;;;;15.05;12.68;;;4.70;99.90;;;;;;5161011;27;20213;-80
2021/01/20 03:43:45;;;;;;;12.32;11.13;;;4.60;99.90;;;;;;5163479;27;20195;-80
2021/01/20 03:46:11;;;;;;;12.30;11.00;;;4.70;99.90;;;;;;5162916;27;20738;-81
2021/01/20 03:48:38;;;;;;;12.98;10.32;;;4.60;99.90;;;;;;5160937;27;20691;-80
2021/01/20 03:51:04;;;;;;;13.77;10.75;;;4.60;99.90;;;;;;5163035;27;20203;-80
2021/01/20 03:53:31;;;;;;;11.20;9.93;;;4.60;99.90;;;;;;5161594;27;20742;-80
2021/01/20 03:55:58;;;;;;;11.40;9.70;;;4.60;99.90;;;;;;5161237;27;20691;-81
2021/01/20 03:58:24;;;;;;;10.43;9.18;;;4.60;99.90;;;;;;5161478;27;20620;-80
2021/01/20 04:00:51;;;;;;;9.88;8.88;;;4.70;99.90;;;;;;5161575;27;20244;-81
2021/01/20 04:03:17;;;;;;;15.38;9.90;;;4.60;99.90;;;;;;5161568;27;20254;-80
2021/01/20 04:05:44;;;;;;;10.38;9.35;;;4.50;99.90;;;;;;5161685;27;20231;-80
2021/01/20 04:08:10;;;;;;;11.13;9.50;;;4.50;99.90;;;;;;5160109;27;20696;-80
2021/01/20 04:10:37;;;;;;;11.50;10.13;;;4.50;99.90;;;;;;5160401;27;20452;-80
2021/01/20 04:13:04;;;;;;;12.60;10.38;;;4.50;99.90;;;;;;5162418;27;20497;-80
2021/01/20 04:15:30;;;;;;;14.60;11.00;;;4.50;99.90;;;;;;5161650;27;20282;-80
2021/01/20 04:17:56;;;;;;;11.65;10.45;;;4.40;99.90;;;;;;5160771;27;20223;-80
2021/01/20 04:20:23;;;;;;;11.43;10.25;;;4.40;99.90;;;;;;5161905;27;20195;-80
2021/01/20 04:22:49;;;;;;;12.70;11.40;;;4.30;99.90;;;;;;5161240;27;20923;-80
2021/01/20 04:25:16;;;;;;;13.45;11.10;;;4.30;99.90;;;;;;5161952;27;20431;-80
2021/01/20 04:27:42;;;;;;;12.52;10.98;;;4.30;99.90;;;;;;5161782;27;20195;-80
2021/01/20 04:30:10;;;;;;;13.32;10.63;;;4.20;99.90;;;;;;5171383;27;20227;-79
2021/01/20 04:32:36;;;;;;;14.95;12.15;;;4.20;99.90;;;;;;5176553;27;20239;-80
2021/01/20 04:35:03;;;;;;;14.32;10.43;;;4.30;99.90;;;;;;5176763;27;20227;-80
2021/01/20 04:37:30;;;;;;;14.55;10.50;;;4.30;99.90;;;;;;5176244;27;20287;-80
2021/01/20 04:39:56;;;;;;;12.60;10.52;;;4.40;99.90;;;;;;5177069;27;20259;-79
2021/01/20 04:42:23;;;;;;;12.45;10.10;;;4.30;99.90;;;;;;5174433;27;20227;-79
2021/01/20 04:44:49;;;;;;;11.38;10.00;;;4.20;99.90;;;;;;5172373;27;20495;-80
2021/01/20 04:47:17;;;;;;;13.52;10.13;;;4.20;99.90;;;;;;5174678;27;20473;-79
2021/01/20 04:49:46;;;;;;;11.63;9.60;;;4.20;99.90;;;;;;5174385;27;20283;-79
2021/01/20 04:52:18;;;;;;;10.60;9.38;;;4.20;99.90;;;;;;5176004;27;20284;-80
2021/01/20 04:54:44;;;;;;;9.50;8.48;;;4.30;99.90;;;;;;5170854;27;20207;-80
2021/01/20 04:57:13;;;;;;;9.35;8.00;;;4.30;99.90;;;;;;5170285;27;20244;-80
2021/01/20 04:59:41;;;;;;;8.07;7.15;;;4.30;99.90;;;;;;5166423;27;20289;-80
2021/01/20 05:02:08;;;;;;;7.40;6.50;;;4.30;99.90;;;;;;5165021;27;20695;-80
2021/01/20 05:04:37;;;;;;;8.98;7.00;;;4.30;99.90;;;;;;5167142;27;20205;-81
2021/01/20 05:07:05;;;;;;;11.82;8.82;;;4.30;99.90;;;;;;5171614;27;20227;-80
2021/01/20 05:09:31;;;;;;;11.10;8.32;;;4.30;99.90;;;;;;5170011;27;20195;-80
2021/01/20 05:11:57;;;;;;;9.73;7.75;;;4.30;99.90;;;;;;5173341;27;20223;-80
2021/01/20 05:14:24;;;;;;;9.60;8.60;;;4.30;99.90;;;;;;5172791;27;20718;-81
2021/01/20 05:16:52;;;;;;;10.20;9.13;;;4.30;99.90;;;;;;5171741;27;20435;-80
2021/01/20 05:19:36;;;;;;;10.10;8.57;;;4.20;99.90;;;;;;5173877;27;20428;-80
2021/01/20 05:22:07;;;;;;;9.18;8.18;;;4.20;99.90;;;;;;5175871;27;20432;-80
2021/01/20 05:24:35;;;;;;;9.95;8.95;;;4.20;99.90;;;;;;5174084;27;20183;-80
2021/01/20 05:27:01;;;;;;;10.73;8.70;;;4.20;99.90;;;;;;5170671;27;20424;-80
2021/01/20 05:29:28;;;;;;;9.75;8.75;;;4.20;99.90;;;;;;5172689;27;20195;-79
2021/01/20 05:31:54;;;;;;;12.45;8.93;;;4.20;99.90;;;;;;5172176;27;20239;-79
2021/01/20 05:34:25;;;;;;;10.88;8.57;;;4.10;99.90;;;;;;5172127;27;20282;-79
2021/01/20 05:37:11;;;;;;;9.82;8.82;;;4.20;99.90;;;;;;5171787;27;20223;-80
2021/01/20 05:39:38;;;;;;;11.10;9.65;;;4.10;99.90;;;;;;5170484;27;20428;-80
2021/01/20 05:42:06;;;;;;;10.45;9.30;;;4.10;99.90;;;;;;5170551;27;20266;-80
2021/01/20 05:44:33;;;;;;;9.32;8.30;;;4.10;99.90;;;;;;5168480;27;20309;-79
2021/01/20 05:47:07;;;;;;;8.23;7.38;;;4.10;99.90;;;;;;5170485;27;20202;-79
2021/01/20 05:49:34;;;;;;;10.50;8.30;;;4.20;99.90;;;;;;5173522;27;20172;-78
2021/01/20 05:52:01;;;;;;;8.88;7.97;;;4.10;99.90;;;;;;5174752;27;20215;-79
2021/01/20 05:54:32;;;;;;;10.45;8.15;;;4.00;99.90;;;;;;5173359;27;20274;-80
2021/01/20 05:57:19;;;;;;;8.18;7.35;;;4.00;99.90;;;;;;5167675;27;20283;-80
2021/01/20 05:59:46;;;;;;;8.77;7.88;;;4.00;99.90;;;;;;5168037;27;20271;-80
2021/01/20 06:02:14;;;;;;;8.95;8.05;;;4.10;99.90;;;;;;5168443;27;20305;-81
2021/01/20 06:04:42;;;;;;;9.55;8.20;;;4.00;99.90;;;;;;5171836;27;20223;-81
2021/01/20 06:07:10;;;;;;;16.45;11.10;;;4.00;99.90;;;;;;5174736;27;20202;-80
2021/01/20 06:09:38;;;;;;;8.05;7.25;;;4.00;99.90;;;;;;5175223;27;20206;-81
2021/01/20 06:12:06;;;;;;;16.40;14.70;;;4.00;99.90;;;;;;5174830;27;20223;-79
2021/01/20 06:14:32;;;;;;;11.60;8.50;;;4.10;99.90;;;;;;5175460;27;20199;-80
2021/01/20 06:17:10;;;;;;;9.50;8.60;;;4.00;99.90;;;;;;5174896;27;20279;-80
2021/01/20 06:19:41;;;;;;;8.27;7.55;;;4.00;99.90;;;;;;5176934;27;20179;-80
2021/01/20 06:22:11;;;;;;;10.05;8.10;;;4.10;99.90;;;;;;5177907;27;20230;-80
2021/01/20 06:24:44;;;;;;;9.43;8.15;;;4.00;99.90;;;;;;5178715;27;20199;-80
2021/01/20 06:27:17;;;;;;;8.90;8.00;;;4.00;99.90;;;;;;5180801;27;20205;-79
2021/01/20 06:29:48;;;;;;;8.27;6.65;;;4.10;99.90;;;;;;5181229;27;20244;-80
2021/01/20 06:32:19;;;;;;;9.43;6.88;;;4.10;99.90;;;;;;5177973;27;20223;-79
2021/01/20 06:34:56;;;;;;;8.43;7.50;;;4.00;99.90;;;;;;5178250;27;20176;-80
2021/01/20 06:37:36;;;;;;;10.05;8.65;;;4.10;99.90;;;;;;5176480;27;20263;-80
2021/01/20 06:40:26;;;;;;;7.65;6.93;;;4.00;99.90;;;;;;5175988;27;20234;-80
2021/01/20 06:42:53;;;;;;;7.53;6.47;;;4.10;99.90;;;;;;5176332;27;20287;-79
2021/01/20 06:45:22;;;;;;;6.72;5.70;;;4.00;99.90;;;;;;5177251;27;20263;-80
2021/01/20 06:48:03;;;;;;;8.00;6.15;;;4.00;99.90;;;;;;5169061;27;20382;-80
2021/01/20 06:50:31;;;;;;;6.90;6.30;;;4.00;99.90;;;;;;5165071;27;20252;-81
2021/01/20 06:53:01;;;;;;;7.43;6.72;;;4.00;99.90;;;;;;5163664;27;20247;-82
2021/01/20 06:55:33;;;;;;;7.88;7.10;;;3.90;99.90;;;;;;5163487;27;20203;-80
2021/01/20 06:58:17;;;;;;;7.05;6.35;;;3.90;99.90;;;;;;5163133;27;20227;-80
2021/01/20 07:00:43;;;;;;;5.90;5.40;;;4.00;99.90;;;;;;5164361;27;20197;-81
2021/01/20 07:03:10;;;;;;;8.40;6.40;;;3.90;99.90;;;;;;5164005;27;20219;-80
2021/01/20 07:05:38;;;;;;;9.30;6.07;;;3.90;99.90;;;;;;5163073;27;20211;-79
2021/01/20 07:08:09;;;;;;;8.60;6.38;;;4.00;99.90;;;;;;5162182;27;20311;-81
2021/01/20 07:11:09;;;;;;;7.47;5.95;;;3.90;99.90;;;;;;5162506;27;20302;-79
2021/01/20 07:13:39;;;;;;;7.65;7.00;;;4.00;99.90;;;;;;5162399;27;20258;-79
2021/01/20 07:16:11;;;;;;;8.52;7.75;;;4.00;99.90;;;;;;5162899;27;20192;-79
2021/01/20 07:18:44;;;;;;;6.72;5.60;;;4.00;99.90;;;;;;5161738;27;20553;-80
2021/01/20 07:21:10;;;;;;;5.90;5.18;;;4.00;99.90;;;;;;5162534;27;20206;-80
2021/01/20 07:23:36;;;;;;;6.10;5.60;;;4.00;99.90;;;;;;5164129;27;20226;-81
2021/01/20 07:26:04;;;;;;;6.82;5.88;;;4.10;99.90;;;;;;5165935;27;20200;-81
2021/01/20 07:28:32;;;;;;;6.47;5.85;;;4.10;99.90;;;;;;5165427;27;20190;-80
2021/01/20 07:31:10;;;;;;;7.28;5.50;;;4.10;99.90;;;;;;5162248;27;20243;-81
2021/01/20 07:33:37;;;;;;;7.80;5.68;;;4.20;99.90;;;;;;5163149;27;20598;-81
2021/01/20 07:36:15;;;;;;;7.32;5.80;;;4.10;99.90;;;;;;5165166;27;20291;-82
2021/01/20 07:38:41;;;;;;;6.05;4.75;;;4.20;99.90;;;;;;5172784;27;20184;-81
2021/01/20 07:41:19;;;;;;;8.93;5.43;;;4.20;99.90;;;;;;5170581;27;20267;-83
2021/01/20 07:43:47;;;;;;;6.45;4.93;;;4.10;99.90;;;;;;5163561;27;20302;-81
2021/01/20 07:46:15;;;;;;;8.05;5.40;;;4.10;99.90;;;;;;5151798;22;20233;-83
2021/01/20 07:48:41;;;;;;;6.18;5.45;;;4.20;99.90;;;;;;5119078;28;20211;-82
2021/01/20 07:51:13;;;;;;;5.80;5.15;;;4.10;99.90;;;;;;5120636;28;20314;-82
2021/01/20 07:53:40;;;;;;;6.70;5.10;;;4.10;99.90;;;;;;5122828;28;20192;-82
2021/01/20 07:56:06;;;;;;;6.35;5.68;;;4.20;99.90;;;;;;5126077;27;20227;-82
2021/01/20 07:58:32;;;;;;;5.40;4.90;;;4.10;99.90;;;;;;5138773;27;20220;-82
2021/01/20 08:01:00;;;;;;;8.88;5.45;;;4.20;99.90;;;;;;5139567;27;20236;-82
2021/01/20 08:03:33;;;;;;;5.82;4.80;;;4.10;99.90;;;;;;5138980;27;20302;-82
2021/01/20 08:06:01;;;;;;;6.43;5.07;;;4.20;99.90;;;;;;5139689;27;20273;-82
2021/01/20 08:08:27;;;;;;;5.97;5.25;;;4.20;99.90;;;;;;5138886;27;20200;-82
2021/01/20 08:10:57;;;;;;;5.65;4.93;;;4.30;99.90;;;;;;5143702;27;20204;-81
2021/01/20 08:13:26;;;;;;;5.60;5.05;;;4.30;99.90;;;;;;5140447;27;20218;-82
2021/01/20 08:15:53;;;;;;;6.28;4.82;;;4.50;99.90;;;;;;5141368;27;20311;-82
2021/01/20 08:18:20;;;;;;;6.57;5.95;;;4.50;99.90;;;;;;5139583;27;20350;-81
2021/01/20 08:20:47;;;;;;;5.43;4.93;;;4.40;99.90;;;;;;5138766;27;20204;-83
2021/01/20 08:23:27;;;;;;;6.97;4.40;;;4.40;99.90;;;;;;5139184;27;20204;-83
2021/01/20 08:26:04;;;;;;;5.50;4.70;;;4.40;99.90;;;;;;5140006;27;20291;-82
2021/01/20 08:28:30;;;;;;;4.88;3.90;;;4.40;99.90;;;;;;5140256;27;20191;-83
2021/01/20 08:30:56;;;;;;;9.27;4.80;;;4.40;99.90;;;;;;5139568;27;20248;-83
2021/01/20 08:33:23;;;;;;;6.05;5.45;;;4.50;99.90;;;;;;5138921;27;20680;-81
2021/01/20 08:35:57;;;;;;;7.75;5.40;;;4.50;99.90;;;;;;5138660;27;20652;-82
2021/01/20 08:38:28;;;;;;;4.80;4.40;;;4.70;99.90;;;;;;5138301;27;20200;-82
2021/01/20 08:41:11;;;;;;;5.10;4.70;;;4.80;99.90;;;;;;5138685;27;20230;-82
2021/01/20 08:43:37;;;;;;;7.18;5.47;;;4.90;99.90;;;;;;5137667;27;20200;-82
2021/01/20 08:46:21;;;;;;;5.82;5.00;;;5.00;99.90;;;;;;5138312;27;20236;-82
2021/01/20 08:48:55;;;;;;;4.65;4.20;;;4.90;99.90;;;;;;5139113;27;20185;-82
2021/01/20 08:51:22;;;;;;;6.65;4.10;;;5.10;99.90;;;;;;5141065;27;20192;-81
2021/01/20 08:53:48;;;;;;;5.20;4.05;;;5.00;99.90;;;;;;5138493;27;20200;-82
2021/01/20 08:56:25;;;;;;;7.80;4.40;;;5.00;99.90;;;;;;5138396;27;20226;-82
2021/01/20 08:58:54;;;;;;;4.65;4.25;;;5.00;99.90;;;;;;5148511;27;20199;-80
2021/01/20 09:01:26;;;;;;;5.13;4.43;;;4.90;99.90;;;;;;5152998;27;20218;-80
2021/01/20 09:03:58;;;;;;;6.35;4.40;;;4.90;99.90;;;;;;5152397;27;20211;-80
2021/01/20 09:06:25;;;;;;;6.07;4.20;;;4.90;99.90;;;;;;5152110;27;20227;-79
2021/01/20 09:08:52;;;;;;;8.82;4.07;;;5.10;99.90;;;;;;5152728;27;20172;-81
2021/01/20 09:11:18;;;;;;;8.05;5.20;;;5.10;99.90;;;;;;5139672;27;20568;-83
2021/01/20 09:13:45;;;;;;;5.07;4.57;;;5.20;99.90;;;;;;5145938;27;20236;-82
2021/01/20 09:18:52;;;;;;;4.00;3.60;;;5.50;99.90;;;;;;5140793;28;20207;-83
2021/01/20 09:21:19;;;;;;;6.45;4.88;;;5.50;99.90;;;;;;5146527;28;20200;-82
2021/01/20 09:23:46;;;;;;;4.55;4.15;;;5.60;99.90;;;;;;5142121;28;20196;-82
2021/01/20 09:26:12;;;;;;;7.43;4.57;;;5.60;99.90;;;;;;5140346;28;20307;-83
2021/01/20 09:28:38;;;;;;;5.28;3.78;;;5.60;99.90;;;;;;5139912;28;20191;-82
2021/01/20 09:31:05;;;;;;;4.65;3.47;;;5.70;99.90;;;;;;5140773;28;20235;-83
2021/01/20 09:33:31;;;;;;;5.45;4.90;;;5.60;99.90;;;;;;5139948;28;20215;-82
2021/01/20 09:35:59;;;;;;;8.18;4.90;;;5.60;99.90;;;;;;5140038;28;20307;-83
2021/01/20 09:38:26;;;;;;;6.40;4.50;;;5.60;99.90;;;;;;5141944;27;20227;-82
2021/01/20 09:40:53;;;;;;;4.93;4.43;;;5.60;99.90;;;;;;5145677;27;20200;-82
2021/01/20 09:43:21;;;;;;;5.63;4.45;;;5.60;99.90;;;;;;5147344;27;20196;-81
2021/01/20 09:45:47;;;;;;;5.88;4.60;;;5.70;99.90;;;;;;5146374;27;20232;-82
2021/01/20 09:48:15;;;;;;;5.07;4.60;;;5.70;99.90;;;;;;5143744;27;20200;-82
2021/01/20 09:50:44;;;;;;;4.68;4.18;;;5.80;99.90;;;;;;5142601;27;20200;-81
2021/01/20 09:53:11;;;;;;;5.95;5.45;;;5.80;99.90;;;;;;5142791;27;20635;-82
2021/01/20 09:55:38;;;;;;;4.85;4.35;;;5.80;99.90;;;;;;5143602;27;20220;-81
2021/01/20 09:58:05;;;;;;;8.00;5.88;;;5.90;99.90;;;;;;5145720;27;20254;-83
2021/01/20 10:00:32;;;;;;;4.65;4.05;;;5.90;99.90;;;;;;5145422;27;20743;-84
2021/01/20 10:03:00;;;;;;;8.20;5.38;;;5.90;99.90;;;;;;5148250;27;20213;-82
2021/01/20 10:05:26;;;;;;;6.40;4.63;;;6.00;99.90;;;;;;5143350;27;20224;-82
2021/01/20 10:07:53;;;;;;;5.80;4.35;;;6.00;99.90;;;;;;5142716;27;20728;-82
2021/01/20 10:10:19;;;;;;;4.47;4.10;;;6.10;99.90;;;;;;5142283;27;20200;-82
2021/01/20 10:12:47;;;;;;;7.70;5.00;;;6.10;99.90;;;;;;5142093;27;20579;-81
2021/01/20 10:15:14;;;;;;;6.50;5.07;;;6.20;99.90;;;;;;5144881;27;20311;-82
2021/01/20 10:17:40;;;;;;;4.32;3.95;;;6.30;99.90;;;;;;5142595;27;20307;-81
2021/01/20 10:20:07;;;;;;;6.65;5.07;;;6.20;99.90;;;;;;5142387;27;20205;-81
2021/01/20 10:22:34;;;;;;;6.22;3.95;;;6.30;99.90;;;;;;5141423;27;20215;-82
2021/01/20 10:25:00;;;;;;;5.00;4.53;;;6.40;99.90;;;;;;5142830;27;20223;-81
2021/01/20 10:27:27;;;;;;;7.03;3.83;;;6.40;99.90;;;;;;5141792;27;20196;-81
2021/01/20 10:29:54;;;;;;;4.35;3.95;;;6.50;99.90;;;;;;5142787;27;20572;-82
2021/01/20 10:32:20;;;;;;;3.85;3.55;;;6.50;99.90;;;;;;5143922;27;20298;-81
2021/01/20 10:34:50;;;;;;;5.70;3.72;;;6.50;99.90;;;;;;5148292;27;20347;-83
2021/01/20 10:37:25;;;;;;;7.28;4.40;;;6.70;99.90;;;;;;5154221;27;20212;-82
2021/01/20 10:39:52;;;;;;;4.13;3.50;;;6.80;99.90;;;;;;5157888;27;20236;-81
2021/01/20 10:42:19;;;;;;;4.20;3.80;;;6.80;99.90;;;;;;5160172;27;20217;-82
2021/01/20 10:44:47;;;;;;;4.97;4.10;;;6.90;99.90;;;;;;5152166;27;20245;-83
2021/01/20 10:47:14;;;;;;;6.68;4.22;;;6.90;99.90;;;;;;5150666;27;20180;-80
2021/01/20 10:49:41;;;;;;;6.30;5.13;;;6.90;99.90;;;;;;5160503;27;20215;-81
2021/01/20 10:52:07;;;;;;;5.57;4.03;;;7.00;99.90;;;;;;5161115;27;20200;-80
2021/01/20 10:54:33;;;;;;;4.40;3.63;;;7.10;99.90;;;;;;5160600;27;20256;-81
2021/01/20 10:57:03;;;;;;;4.07;3.63;;;7.10;99.90;;;;;;5147834;27;20243;-83
2021/01/20 10:59:39;;;;;;;4.88;4.30;;;7.20;99.90;;;;;;5143524;27;20227;-84
2021/01/20 11:02:05;;;;;;;4.65;3.88;;;7.30;99.90;;;;;;5142520;27;20190;-83
2021/01/20 11:04:33;;;;;;;6.10;4.90;;;7.30;99.90;;;;;;5142290;27;20215;-83
2021/01/20 11:06:59;;;;;;;5.32;3.85;;;7.40;99.90;;;;;;5141747;27;20230;-82
2021/01/20 11:09:25;;;;;;;4.13;3.83;;;7.40;99.90;;;;;;5141758;27;20204;-83
2021/01/20 11:11:52;;;;;;;5.45;4.07;;;7.40;99.90;;;;;;5142194;27;20739;-83
2021/01/20 11:14:22;;;;;;;8.52;4.40;;;7.50;99.90;;;;;;5141670;27;20295;-83
2021/01/20 11:16:51;;;;;;;5.90;5.10;;;7.60;99.90;;;;;;5141524;27;20656;-82
2021/01/20 11:19:17;;;;;;;9.95;5.80;;;7.60;99.90;;;;;;5141047;27;20206;-83
2021/01/20 11:21:45;;;;;;;14.35;7.50;;;7.70;99.90;;;;;;5141940;27;20215;-82
2021/01/20 11:24:11;;;;;;;5.63;5.13;;;7.70;99.90;;;;;;5141961;27;20200;-83
2021/01/20 11:26:37;;;;;;;4.55;3.75;;;7.80;99.90;;;;;;5142025;27;20220;-83
2021/01/20 11:29:04;;;;;;;8.35;6.45;;;7.80;99.90;;;;;;5142745;27;20235;-83
2021/01/20 11:31:30;;;;;;;4.00;3.70;;;7.80;99.90;;;;;;5157819;27;20203;-80
2021/01/20 11:33:57;;;;;;;5.90;4.28;;;7.90;99.90;;;;;;5151970;27;20731;-82
2021/01/20 11:36:23;;;;;;;2.80;2.60;;;7.80;99.90;;;;;;5153258;27;20208;-79
2021/01/20 11:38:50;;;;;;;3.38;2.95;;;7.80;99.90;;;;;;5152726;27;20243;-79
2021/01/20 11:41:17;;;;;;;3.40;3.10;;;7.80;99.90;;;;;;5144005;27;20204;-81
2021/01/20 11:43:44;;;;;;;5.53;4.00;;;7.70;99.90;;;;;;5142425;27;20204;-82
2021/01/20 11:46:10;;;;;;;4.03;3.40;;;7.80;99.90;;;;;;5141002;27;20263;-81
2021/01/20 11:48:39;;;;;;;3.95;3.35;;;7.90;99.90;;;;;;5141564;27;20196;-81
2021/01/20 11:51:05;;;;;;;4.03;3.22;;;8.00;99.90;;;;;;5141197;27;20222;-82
2021/01/20 11:53:32;;;;;;;3.35;3.05;;;8.00;99.90;;;;;;5140931;27;20228;-83
2021/01/20 11:55:59;;;;;;;3.38;3.13;;;8.00;99.90;;;;;;5141195;27;20216;-83
2021/01/20 11:58:25;;;;;;;5.70;3.45;;;8.10;99.90;;;;;;5141004;27;20244;-83
2021/01/20 12:00:51;;;;;;;4.07;3.67;;;8.10;99.90;;;;;;5138637;27;20204;-82
2021/01/20 12:03:18;;;;;;;4.45;4.05;;;8.10;99.90;;;;;;5138149;27;20206;-82
2021/01/20 12:05:44;;;;;;;4.65;3.03;;;8.10;99.90;;;;;;5140489;27;20241;-82
2021/01/20 12:08:10;;;;;;;3.35;2.80;;;8.10;99.90;;;;;;5141401;27;20637;-83
2021/01/20 12:10:37;;;;;;;3.38;3.08;;;8.20;99.90;;;;;;5140888;27;20273;-83
2021/01/20 12:13:04;;;;;;;3.30;3.00;;;8.30;99.90;;;;;;5141820;27;20200;-83
2021/01/20 12:15:30;;;;;;;2.65;2.45;;;8.40;99.90;;;;;;5140642;27;20700;-83
2021/01/20 12:17:56;;;;;;;3.90;3.57;;;8.40;99.90;;;;;;5141205;27;20302;-83
2021/01/20 12:20:23;;;;;;;5.63;3.22;;;8.40;99.90;;;;;;5142026;27;20505;-84
2021/01/20 12:22:49;;;;;;;3.30;2.90;;;8.50;99.90;;;;;;5142415;27;20228;-83
2021/01/20 12:25:16;;;;;;;3.63;2.83;;;8.50;99.90;;;;;;5143596;27;20277;-82
2021/01/20 12:27:42;;;;;;;7.60;3.20;;;8.50;99.90;;;;;;5142184;27;20206;-82
2021/01/20 12:30:11;;;;;;;2.50;2.30;;;8.60;99.90;;;;;;5141819;27;20314;-82
2021/01/20 12:32:38;;;;;;;4.13;2.55;;;8.60;99.90;;;;;;5141770;27;20215;-82
2021/01/20 12:35:06;;;;;;;2.67;2.45;;;8.60;99.90;;;;;;5141659;27;20230;-80
2021/01/20 12:37:32;;;;;;;3.42;2.38;;;8.60;99.90;;;;;;5140131;27;20696;-82
2021/01/20 12:39:58;;;;;;;2.67;2.50;;;8.60;99.90;;;;;;5139153;27;20257;-81
2021/01/20 12:42:25;;;;;;;5.13;2.60;;;8.70;99.90;;;;;;5139043;27;20264;-81
2021/01/20 12:44:51;;;;;;;5.82;2.92;;;8.60;99.90;;;;;;5139649;27;20214;-82
2021/01/20 12:47:19;;;;;;;2.97;2.33;;;8.60;99.90;;;;;;5142195;27;20181;-82
2021/01/20 12:49:45;;;;;;;4.93;2.67;;;8.60;99.90;;;;;;5143526;27;20204;-82
2021/01/20 12:52:12;;;;;;;2.33;2.13;;;8.70;99.90;;;;;;5143076;27;20720;-82
2021/01/20 12:54:38;;;;;;;3.75;3.40;;;8.70;99.90;;;;;;5142166;27;20263;-80
2021/01/20 12:57:05;;;;;;;5.35;2.80;;;8.70;99.90;;;;;;5141590;27;20216;-83
2021/01/20 12:59:31;;;;;;;2.97;2.65;;;8.70;99.90;;;;;;5141516;27;20219;-82